Aérodrome :
LOGIN :

S'inscrire | Disclaimer

   EN    FR    IT 

 










Légende :    VFR   VFR Marginal   IFR   IFR Intensif   IFR Très Intensif
Visi : 
Plafond : 
>= 8 km
>= 3000ft
5 à 8 km
1000 à 3000 ft
1500m à 5 km
500 à 1000 ft
800 à 1500m
200 à 500 ft
< 800m
< 200 ft
Symboles :   Orages  Brouillard  Fortes neiges  Fortes précipitations  Vent > 20 kt
SIGMETs :   Divers  Orages  Givrage  Turbulence  Onde Orograph.  Cendres Volcan.






- Altitude de l'aérodrome : 388 ft
- Code IATA : QYR


LFQB - Troyes Barberey

DERNIER METAR :
  • 141530Z AUTO 34006KT 310V010 CAVOK 22/14 Q1020

METARs EXPIRÉS :
  • 141500Z AUTO 32006KT 280V360 CAVOK 22/13 Q1020
  • 141430Z AUTO 33005KT 300V010 CAVOK 22/13 Q1021
  • 141400Z AUTO 35005KT 310V030 CAVOK 22/13 Q1021
  • 141330Z AUTO 33007KT 300V360 CAVOK 21/14 Q1022
  • 141300Z AUTO 32005KT 280V030 CAVOK 21/13 Q1022
  • 141230Z AUTO 34006KT 280V020 CAVOK 21/13 Q1023
  • 141200Z AUTO 33005KT 250V040 CAVOK 21/14 Q1023
  • 141130Z AUTO VRB03KT CAVOK 21/13 Q1023
  • 141100Z AUTO 32005KT 270V360 CAVOK 20/12 Q1023

TAF N/A



MET'MAP, la Météo Aéronautique d'un coup d'oeil ! - Copyright ORBIFLY Décembre 2007 - Disclaimer

ORBIFLY MET'MAP TEAM :

Programmation & Développement : Alexandra Zaïnal
Sur une idée originale de : Baudouin d'Aumeries
Soutien technique & logistique : Manuel Goepfert
Assistance : Marc-Olivier Méhu




SOURCES & CREDITS :

   NOAA